createdAt,value
2018-09-03T00:02:18.039Z,80.12
2018-09-03T00:04:47.052Z,79.53
2018-09-03T00:07:16.347Z,79.62
2018-09-03T00:09:45.375Z,79.64
2018-09-03T00:12:14.360Z,79.76
2018-09-03T00:14:43.411Z,79.41
2018-09-03T00:17:12.435Z,80.02
2018-09-03T00:19:41.459Z,79.58
2018-09-03T00:22:10.439Z,79.76
2018-09-03T00:24:39.796Z,79.90
2018-09-03T00:27:08.806Z,79.81
2018-09-03T00:29:37.786Z,79.28
2018-09-03T00:32:12.705Z,78.90
2018-09-03T00:34:47.002Z,79.25
2018-09-03T00:37:21.674Z,79.59
2018-09-03T00:39:55.990Z,79.07
2018-09-03T00:42:30.330Z,78.53
2018-09-03T00:45:04.652Z,78.79
2018-09-03T00:47:33.658Z,78.81
2018-09-03T00:50:02.633Z,79.61
2018-09-03T00:52:31.610Z,79.51
2018-09-03T00:55:00.706Z,79.54
2018-09-03T00:57:29.694Z,78.66
2018-09-03T00:59:58.701Z,78.61
2018-09-03T01:02:27.686Z,78.18
2018-09-03T01:04:57.179Z,78.78
2018-09-03T01:07:26.166Z,78.25
2018-09-03T01:09:55.142Z,76.76
2018-09-03T01:12:24.154Z,76.40
2018-09-03T01:14:53.135Z,75.95
2018-09-03T01:17:22.413Z,75.58
2018-09-03T01:19:51.424Z,75.94
2018-09-03T01:22:20.393Z,76.58
2018-09-03T01:24:49.603Z,77.08
2018-09-03T01:27:18.594Z,77.59
2018-09-03T01:29:47.970Z,77.93
2018-09-03T01:32:16.940Z,78.05
2018-09-03T01:34:45.922Z,78.21
2018-09-03T01:37:15.006Z,78.50
2018-09-03T01:39:43.998Z,78.33
2018-09-03T01:42:13.323Z,77.73
2018-09-03T01:44:42.309Z,78.37
2018-09-03T01:47:11.310Z,77.67
2018-09-03T01:49:40.291Z,77.42
2018-09-03T01:52:09.369Z,77.70
2018-09-03T01:54:38.371Z,77.69
2018-09-03T01:57:07.361Z,77.33
2018-09-03T01:59:36.633Z,78.33
2018-09-03T02:02:05.640Z,78.78
2018-09-03T02:04:34.649Z,78.25
2018-09-03T02:07:03.667Z,78.31
2018-09-03T02:09:32.741Z,78.31
2018-09-03T02:12:02.097Z,78.27
2018-09-03T02:14:31.072Z,78.64
2018-09-03T02:17:00.054Z,78.59
2018-09-03T02:19:29.105Z,78.64
2018-09-03T02:21:58.094Z,77.97
2018-09-03T02:24:27.118Z,77.62
2018-09-03T02:26:56.106Z,77.63
2018-09-03T02:29:25.206Z,78.25
2018-09-03T02:31:54.198Z,77.53
2018-09-03T02:34:23.196Z,78.00
2018-09-03T02:36:52.193Z,77.52
2018-09-03T02:39:21.274Z,77.63
2018-09-03T02:41:50.591Z,78.44
2018-09-03T02:44:19.576Z,78.97
2018-09-03T02:46:48.569Z,78.31
2018-09-03T02:49:17.564Z,78.59
2018-09-03T02:51:46.543Z,78.85
2018-09-03T02:54:15.550Z,78.73
2018-09-03T02:56:44.538Z,79.51
2018-09-03T02:59:13.546Z,79.21
2018-09-03T03:01:42.772Z,78.78
2018-09-03T03:04:11.749Z,79.23
2018-09-03T03:06:40.742Z,78.88
2018-09-03T03:09:09.727Z,78.60
2018-09-03T03:11:39.532Z,78.28
2018-09-03T03:14:08.696Z,78.87
2018-09-03T03:16:37.714Z,78.90
2018-09-03T03:19:06.704Z,78.98
2018-09-03T03:21:35.930Z,79.17
2018-09-03T03:24:04.900Z,78.97
2018-09-03T03:26:33.875Z,79.40
2018-09-03T03:29:02.938Z,79.00
2018-09-03T03:31:31.989Z,78.90
2018-09-03T03:34:01.261Z,78.59
2018-09-03T03:36:30.233Z,78.59
2018-09-03T03:38:59.211Z,78.26
2018-09-03T03:41:28.337Z,79.04
2018-09-03T03:43:57.349Z,78.52
2018-09-03T03:46:26.361Z,78.29
2018-09-03T03:48:55.350Z,78.48
2018-09-03T03:51:24.622Z,78.17
2018-09-03T03:53:53.594Z,78.63
2018-09-03T03:56:22.586Z,78.75
2018-09-03T03:58:51.770Z,79.34
2018-09-03T04:01:20.754Z,79.10
2018-09-03T04:03:49.842Z,79.12
2018-09-03T04:06:18.858Z,79.42
2018-09-03T04:08:47.927Z,79.26
2018-09-03T04:11:16.926Z,78.68
2018-09-03T04:13:45.962Z,78.84
2018-09-03T04:16:14.966Z,79.04
2018-09-03T04:18:43.946Z,79.08
2018-09-03T04:21:13.201Z,79.13
2018-09-03T04:23:42.278Z,79.01
2018-09-03T04:26:11.326Z,79.01
2018-09-03T04:28:40.400Z,79.22
2018-09-03T04:31:09.382Z,78.94
2018-09-03T04:33:38.785Z,78.80
2018-09-03T04:36:07.774Z,79.24
2018-09-03T04:38:36.820Z,78.97
2018-09-03T04:41:05.770Z,79.67
2018-09-03T04:43:34.781Z,79.75
2018-09-03T04:46:03.790Z,79.69
2018-09-03T04:48:32.774Z,79.99
2018-09-03T04:51:02.097Z,79.52
2018-09-03T04:53:31.949Z,79.82
2018-09-03T04:56:00.962Z,80.08
2018-09-03T04:58:30.042Z,79.50
2018-09-03T05:00:59.057Z,79.64
2018-09-03T05:03:28.029Z,79.60
2018-09-03T05:05:57.069Z,79.62
2018-09-03T05:08:26.044Z,79.72
2018-09-03T05:10:55.053Z,79.95
2018-09-03T05:13:24.041Z,80.11
2018-09-03T05:15:53.115Z,79.44
2018-09-03T05:18:22.061Z,79.86
2018-09-03T05:20:51.038Z,79.88
2018-09-03T05:23:20.117Z,79.49
2018-09-03T05:25:49.174Z,79.75
2018-09-03T05:28:18.163Z,79.15
2018-09-03T05:30:47.193Z,78.85
2018-09-03T05:33:16.216Z,78.97
2018-09-03T05:35:45.249Z,79.11
2018-09-03T05:38:14.234Z,78.66
2018-09-03T05:40:43.225Z,78.63
2018-09-03T05:43:12.316Z,78.45
2018-09-03T05:45:41.394Z,78.71
2018-09-03T05:48:10.802Z,78.61
2018-09-03T05:50:39.829Z,78.23
2018-09-03T05:53:08.778Z,77.98
2018-09-03T05:55:37.802Z,77.67
2018-09-03T05:58:07.202Z,76.73
2018-09-03T06:00:36.302Z,76.87
2018-09-03T06:03:05.479Z,77.49
2018-09-03T06:05:34.481Z,78.05
2018-09-03T06:08:03.493Z,77.78
2018-09-03T06:10:32.539Z,78.17
2018-09-03T06:13:01.746Z,76.98
2018-09-03T06:15:30.750Z,76.96
2018-09-03T06:17:59.766Z,77.23
2018-09-03T06:20:28.773Z,76.88
2018-09-03T06:22:57.754Z,76.82
2018-09-03T06:25:26.850Z,76.60
2018-09-03T06:27:55.882Z,76.22
2018-09-03T06:30:24.881Z,76.28
2018-09-03T06:32:53.959Z,75.63
2018-09-03T06:35:22.996Z,75.61
2018-09-03T06:37:52.056Z,75.86
2018-09-03T06:40:21.044Z,75.26
2018-09-03T06:42:50.106Z,74.97
2018-09-03T06:45:19.273Z,74.56
2018-09-03T06:47:48.269Z,74.83
2018-09-03T06:50:17.353Z,75.12
2018-09-03T06:52:46.566Z,73.91
2018-09-03T06:55:15.557Z,73.72
2018-09-03T06:57:44.561Z,73.11
2018-09-03T07:00:13.563Z,71.94
2018-09-03T07:02:43.046Z,73.31
2018-09-03T07:05:15.556Z,73.13
2018-09-03T07:07:44.629Z,73.05
2018-09-03T07:10:13.756Z,73.92
2018-09-03T07:12:42.867Z,73.59
2018-09-03T07:15:11.954Z,74.20
2018-09-03T07:17:41.610Z,73.87
2018-09-03T07:20:10.597Z,72.51
2018-09-03T07:22:39.609Z,72.24
2018-09-03T07:25:08.593Z,71.43
2018-09-03T07:27:37.825Z,71.94
2018-09-03T07:30:06.927Z,71.25
2018-09-03T07:32:35.913Z,71.33
2018-09-03T07:35:05.135Z,71.38
2018-09-03T07:37:34.414Z,71.84
2018-09-03T07:40:03.414Z,71.28
2018-09-03T07:42:33.102Z,72.03
2018-09-03T07:45:02.082Z,71.05
2018-09-03T07:47:31.149Z,71.56
2018-09-03T07:50:00.174Z,71.26
2018-09-03T07:52:29.165Z,70.47
2018-09-03T07:54:58.179Z,71.02
2018-09-03T07:57:27.453Z,70.71
2018-09-03T07:59:56.533Z,70.57
2018-09-03T08:02:25.535Z,70.41
2018-09-03T08:04:54.678Z,69.40
2018-09-03T08:07:23.756Z,67.75
2018-09-03T08:09:52.865Z,68.35
2018-09-03T08:12:21.954Z,67.83
2018-09-03T08:14:50.939Z,66.36
2018-09-03T08:17:19.954Z,65.64
2018-09-03T08:19:48.970Z,65.59
2018-09-03T08:22:18.221Z,64.51
2018-09-03T08:24:47.196Z,64.52
2018-09-03T08:27:16.174Z,65.84
2018-09-03T08:29:45.208Z,67.47
2018-09-03T08:32:14.190Z,66.95
2018-09-03T08:34:43.246Z,66.38
2018-09-03T08:37:12.233Z,66.22
2018-09-03T08:39:41.213Z,66.97
2018-09-03T08:42:10.275Z,67.28
2018-09-03T08:44:39.393Z,67.29
2018-09-03T08:47:08.491Z,66.84
2018-09-03T08:49:37.466Z,66.86
2018-09-03T08:52:06.792Z,66.22
2018-09-03T08:54:35.842Z,64.47
2018-09-03T08:57:04.854Z,63.14
2018-09-03T08:59:34.184Z,64.46
2018-09-03T09:02:03.182Z,65.04
2018-09-03T09:04:32.449Z,63.77
2018-09-03T09:07:01.450Z,63.00
2018-09-03T09:09:30.472Z,63.70
2018-09-03T09:11:59.556Z,63.61
2018-09-03T09:14:29.414Z,63.53
2018-09-03T09:16:58.731Z,64.35
2018-09-03T09:19:27.837Z,64.29
2018-09-03T09:21:56.814Z,64.69
2018-09-03T09:24:25.872Z,63.84
2018-09-03T09:26:54.833Z,64.23
2018-09-03T09:29:23.846Z,63.35
2018-09-03T09:31:52.819Z,62.89
2018-09-03T09:34:21.873Z,63.55
2018-09-03T09:36:50.946Z,62.10
2018-09-03T09:39:19.829Z,60.62
2018-09-03T09:41:48.834Z,62.56
2018-09-03T09:44:17.872Z,62.44
2018-09-03T09:46:46.885Z,63.20
2018-09-03T09:49:15.873Z,63.54
2018-09-03T09:51:45.294Z,64.02
2018-09-03T09:54:14.302Z,63.71
2018-09-03T09:56:43.300Z,63.34
2018-09-03T09:59:12.310Z,63.67
2018-09-03T10:01:41.314Z,62.73
2018-09-03T10:04:10.342Z,62.18
2018-09-03T10:06:39.300Z,60.87
2018-09-03T10:09:08.694Z,62.49
2018-09-03T10:11:37.687Z,61.29
2018-09-03T10:14:07.006Z,61.11
2018-09-03T10:16:35.998Z,61.37
2018-09-03T10:19:05.105Z,62.34
2018-09-03T10:21:34.119Z,60.41
2018-09-03T10:24:03.129Z,58.25
2018-09-03T10:26:32.129Z,58.68
2018-09-03T10:29:01.147Z,58.19
2018-09-03T10:31:30.301Z,59.25
2018-09-03T10:33:59.306Z,59.24
2018-09-03T10:36:28.305Z,56.00
2018-09-03T10:38:57.302Z,56.83
2018-09-03T10:41:26.283Z,58.53
2018-09-03T10:43:55.257Z,58.43
2018-09-03T10:46:24.559Z,58.06
2018-09-03T10:48:53.541Z,57.85
2018-09-03T10:51:22.529Z,58.45
2018-09-03T10:53:51.554Z,58.38
2018-09-03T10:56:20.529Z,57.89
2018-09-03T10:58:49.528Z,57.60
2018-09-03T11:01:18.772Z,57.76
2018-09-03T11:03:48.198Z,57.98
2018-09-03T11:06:17.383Z,58.07
2018-09-03T11:08:46.527Z,58.40
2018-09-03T11:11:15.541Z,56.09
2018-09-03T11:13:44.554Z,55.80
2018-09-03T11:16:13.593Z,56.23
2018-09-03T11:18:42.618Z,56.33
2018-09-03T11:21:11.696Z,57.12
2018-09-03T11:23:40.838Z,56.48
2018-09-03T11:26:09.865Z,56.50
2018-09-03T11:28:39.000Z,57.61
2018-09-03T11:31:08.170Z,56.82
2018-09-03T11:33:37.203Z,57.04
2018-09-03T11:36:06.198Z,55.23
2018-09-03T11:38:35.396Z,54.72
2018-09-03T11:41:04.530Z,54.69
2018-09-03T11:43:33.740Z,54.19
2018-09-03T11:46:03.006Z,52.94
2018-09-03T11:48:32.046Z,53.36
2018-09-03T11:51:01.099Z,52.89
2018-09-03T11:53:30.216Z,53.05
2018-09-03T11:55:59.217Z,52.65
2018-09-03T11:58:28.219Z,53.81
2018-09-03T12:00:58.169Z,53.69
2018-09-03T12:03:27.142Z,54.58
2018-09-03T12:05:56.227Z,53.79
2018-09-03T12:08:25.278Z,54.44
2018-09-03T12:10:54.301Z,53.92
2018-09-03T12:13:23.329Z,54.18
2018-09-03T12:16:24.043Z,53.71
2018-09-03T12:18:55.644Z,54.43
2018-09-03T12:21:24.762Z,53.20
2018-09-03T12:23:53.971Z,53.29
2018-09-03T12:26:23.094Z,53.91
2018-09-03T12:28:52.389Z,53.31
2018-09-03T12:31:21.609Z,54.72
2018-09-03T12:33:50.716Z,54.00
2018-09-03T12:36:19.871Z,53.56
2018-09-03T12:38:48.885Z,54.77
2018-09-03T12:41:18.082Z,54.44
2018-09-03T12:43:47.182Z,55.09
2018-09-03T12:46:17.463Z,54.79
2018-09-03T12:48:46.605Z,56.26
2018-09-03T12:51:15.682Z,54.78
2018-09-03T12:53:44.709Z,54.97
2018-09-03T12:56:13.696Z,54.99
2018-09-03T12:58:42.739Z,54.51
2018-09-03T13:03:39.505Z,54.25
2018-09-03T13:06:08.616Z,53.82
2018-09-03T13:08:37.605Z,52.91
2018-09-03T13:11:06.601Z,53.97
2018-09-03T13:13:35.606Z,53.81
2018-09-03T13:16:04.602Z,53.20
2018-09-03T13:18:33.611Z,53.38
2018-09-03T13:21:02.619Z,52.67
2018-09-03T13:23:31.654Z,52.09
2018-09-03T13:26:00.645Z,52.17
2018-09-03T13:28:29.633Z,52.45
2018-09-03T13:30:58.726Z,50.71
2018-09-03T13:33:27.765Z,49.83
2018-09-03T13:35:56.747Z,49.78
2018-09-03T13:38:25.759Z,49.73
2018-09-03T13:40:54.751Z,48.58
2018-09-03T13:43:23.741Z,50.05
2018-09-03T13:48:14.326Z,51.17
2018-09-03T13:50:43.274Z,51.20
2018-09-03T13:53:12.273Z,51.31
2018-09-03T13:55:41.301Z,50.87
2018-09-03T13:58:10.279Z,51.86
2018-09-03T14:00:39.281Z,51.67
2018-09-03T14:03:08.269Z,51.81
2018-09-03T14:05:37.292Z,52.55
2018-09-03T14:08:06.291Z,53.11
2018-09-03T14:10:35.269Z,53.00
2018-09-03T14:13:04.267Z,53.51
2018-09-03T14:15:33.278Z,53.13
2018-09-03T14:18:08.939Z,53.69
2018-09-03T14:20:37.915Z,53.21
2018-09-03T14:23:06.922Z,53.02
2018-09-03T14:25:36.006Z,53.70
2018-09-03T14:28:05.162Z,53.88
2018-09-03T14:30:34.157Z,52.32
2018-09-03T14:33:03.183Z,51.25
2018-09-03T14:35:32.206Z,51.26
2018-09-03T14:38:02.232Z,52.00
2018-09-03T14:40:31.222Z,52.13
2018-09-03T14:43:00.559Z,51.28
2018-09-03T14:45:29.558Z,52.14
2018-09-03T14:47:58.591Z,52.03
2018-09-03T14:50:27.846Z,51.96
2018-09-03T14:52:57.034Z,52.32
2018-09-03T14:55:26.153Z,51.18
2018-09-03T14:57:55.375Z,53.06
2018-09-03T15:00:24.374Z,53.62
2018-09-03T15:02:53.397Z,52.76
2018-09-03T15:05:22.382Z,52.79
2018-09-03T15:07:51.779Z,53.80
2018-09-03T15:10:20.909Z,54.15
2018-09-03T15:12:49.897Z,53.94
2018-09-03T15:15:19.013Z,53.58
2018-09-03T15:17:47.985Z,54.56
2018-09-03T15:20:16.970Z,55.03
2018-09-03T15:22:45.997Z,52.06
2018-09-03T15:25:15.019Z,53.55
2018-09-03T15:27:44.000Z,54.06
2018-09-03T15:30:13.021Z,54.56
2018-09-03T15:32:42.062Z,54.21
2018-09-03T15:35:11.065Z,53.38
2018-09-03T15:37:40.159Z,54.96
2018-09-03T15:40:09.142Z,54.06
2018-09-03T15:42:38.160Z,54.68
2018-09-03T15:45:07.138Z,53.46
2018-09-03T15:47:36.394Z,53.51
2018-09-03T15:50:05.841Z,54.92
2018-09-03T15:52:34.870Z,54.00
2018-09-03T15:55:03.897Z,55.02
2018-09-03T15:57:32.882Z,55.70
2018-09-03T16:00:01.946Z,55.40
2018-09-03T16:02:30.930Z,56.38
2018-09-03T16:04:59.974Z,56.02
2018-09-03T16:07:28.977Z,56.68
2018-09-03T16:09:58.041Z,55.68
2018-09-03T16:12:27.261Z,56.16
2018-09-03T16:14:56.246Z,56.66
2018-09-03T16:17:25.241Z,56.82
2018-09-03T16:19:54.461Z,57.32
2018-09-03T16:22:23.445Z,57.23
2018-09-03T16:24:52.499Z,58.04
2018-09-03T16:27:21.541Z,57.62
2018-09-03T16:29:50.521Z,56.68
2018-09-03T16:32:19.632Z,57.91
2018-09-03T16:34:48.614Z,58.35
2018-09-03T16:37:17.983Z,57.50
2018-09-03T16:39:46.989Z,58.73
2018-09-03T16:42:16.110Z,59.50
2018-09-03T16:44:45.442Z,60.12
2018-09-03T16:47:14.420Z,60.87
2018-09-03T16:49:43.440Z,60.81
2018-09-03T16:52:12.467Z,62.05
2018-09-03T16:54:41.454Z,61.40
2018-09-03T16:57:10.469Z,62.10
2018-09-03T16:59:39.634Z,63.76
2018-09-03T17:02:08.650Z,64.29
2018-09-03T17:04:37.717Z,63.81
2018-09-03T17:07:06.894Z,64.29
2018-09-03T17:09:36.329Z,64.50
2018-09-03T17:12:05.314Z,64.31
2018-09-03T17:14:34.338Z,64.27
2018-09-03T17:17:03.309Z,64.21
2018-09-03T17:19:32.321Z,64.32
2018-09-03T17:22:01.330Z,64.89
2018-09-03T17:24:30.297Z,65.26
2018-09-03T17:26:59.351Z,65.37
2018-09-03T17:29:35.074Z,64.91
2018-09-03T17:32:04.174Z,65.44
2018-09-03T17:34:33.193Z,65.04
2018-09-03T17:37:02.210Z,66.17
2018-09-03T17:39:31.225Z,67.15
2018-09-03T17:42:06.833Z,67.00
2018-09-03T17:44:35.855Z,66.74
2018-09-03T17:47:05.116Z,67.54
2018-09-03T17:49:34.361Z,66.94
2018-09-03T17:52:03.650Z,66.92
2018-09-03T17:54:32.825Z,66.50
2018-09-03T17:57:01.881Z,66.33
2018-09-03T17:59:30.881Z,66.70
2018-09-03T18:01:59.878Z,66.32
2018-09-03T18:04:29.001Z,67.20
2018-09-03T18:06:57.995Z,66.33
2018-09-03T18:09:27.073Z,66.14
2018-09-03T18:11:56.402Z,66.26
2018-09-03T18:14:25.482Z,66.54
2018-09-03T18:16:54.799Z,67.09
2018-09-03T18:19:23.774Z,67.05
2018-09-03T18:21:52.951Z,67.79
2018-09-03T18:24:21.789Z,68.12
2018-09-03T18:26:50.842Z,67.87
2018-09-03T18:29:19.843Z,67.67
2018-09-03T18:31:48.847Z,68.09
2018-09-03T18:34:17.930Z,68.17
2018-09-03T18:36:46.919Z,68.26
2018-09-03T18:39:15.919Z,68.74
2018-09-03T18:41:44.950Z,68.74
2018-09-03T18:44:13.906Z,69.55
2018-09-03T18:46:43.012Z,69.83
2018-09-03T18:49:11.997Z,69.73
2018-09-03T18:51:41.045Z,69.89
2018-09-03T18:54:10.124Z,70.01
2018-09-03T18:56:39.076Z,70.07
2018-09-03T18:59:08.593Z,70.54
2018-09-03T19:01:37.658Z,70.77
2018-09-03T19:04:06.652Z,71.22
2018-09-03T19:06:35.632Z,71.75
2018-09-03T19:09:05.934Z,71.63
2018-09-03T19:11:34.953Z,71.59
2018-09-03T19:14:03.937Z,72.28
2018-09-03T19:16:32.957Z,71.87
2018-09-03T19:19:02.173Z,72.42
2018-09-03T19:21:31.273Z,73.38
2018-09-03T19:24:00.262Z,72.88
2018-09-03T19:26:29.348Z,73.15
2018-09-03T19:28:58.436Z,73.40
2018-09-03T19:31:27.463Z,72.79
2018-09-03T19:33:56.522Z,73.76
2018-09-03T19:36:25.598Z,73.78
2018-09-03T19:38:54.611Z,73.77
2018-09-03T19:41:23.941Z,73.45
2018-09-03T19:43:52.925Z,73.67
2018-09-03T19:46:21.913Z,73.73
2018-09-03T19:48:51.422Z,73.93
2018-09-03T19:51:20.641Z,73.99
2018-09-03T19:53:49.650Z,73.68
2018-09-03T19:56:18.801Z,74.23
2018-09-03T19:58:47.882Z,73.86
2018-09-03T20:01:16.891Z,73.69
2018-09-03T20:03:45.882Z,73.61
2018-09-03T20:06:15.306Z,73.47
2018-09-03T20:08:44.224Z,73.20
2018-09-03T20:11:13.319Z,72.94
2018-09-03T20:13:42.337Z,72.96
2018-09-03T20:16:11.370Z,73.24
2018-09-03T20:18:40.362Z,73.65
2018-09-03T20:21:09.343Z,73.90
2018-09-03T20:23:38.772Z,73.74
2018-09-03T20:26:07.608Z,74.06
2018-09-03T20:28:36.648Z,74.55
2018-09-03T20:31:05.875Z,74.67
2018-09-03T20:33:34.854Z,74.93
2018-09-03T20:36:04.142Z,74.80
2018-09-03T20:38:33.138Z,74.52
2018-09-03T20:41:03.395Z,75.02
2018-09-03T20:43:32.392Z,75.30
2018-09-03T20:46:01.482Z,75.50
2018-09-03T20:48:36.702Z,74.57
2018-09-03T20:51:05.878Z,75.47
2018-09-03T20:53:35.183Z,75.28
2018-09-03T20:56:04.250Z,75.14
2018-09-03T20:58:33.509Z,75.33
2018-09-03T21:01:02.642Z,75.25
2018-09-03T21:03:31.655Z,75.35
2018-09-03T21:06:00.806Z,75.65
2018-09-03T21:08:29.889Z,75.61
2018-09-03T21:10:58.814Z,75.57
2018-09-03T21:13:27.826Z,75.91
2018-09-03T21:15:56.815Z,75.54
2018-09-03T21:18:26.166Z,76.02
2018-09-03T21:20:55.157Z,76.18
2018-09-03T21:23:24.329Z,76.29
2018-09-03T21:25:53.306Z,76.06
2018-09-03T21:28:22.303Z,76.47
2018-09-03T21:30:51.338Z,76.30
2018-09-03T21:33:20.373Z,76.32
2018-09-03T21:35:49.375Z,76.11
2018-09-03T21:38:18.389Z,76.71
2018-09-03T21:40:47.381Z,76.68
2018-09-03T21:43:16.421Z,77.20
2018-09-03T21:45:45.430Z,77.03
2018-09-03T21:48:14.426Z,77.04
2018-09-03T21:50:43.444Z,76.31
2018-09-03T21:53:12.430Z,76.73
2018-09-03T21:55:41.445Z,76.55
2018-09-03T21:58:10.554Z,77.19
2018-09-03T22:00:39.594Z,77.44
2018-09-03T22:03:08.581Z,77.41
2018-09-03T22:05:37.570Z,77.42
2018-09-03T22:08:06.626Z,77.69
2018-09-03T22:10:35.714Z,77.72
2018-09-03T22:13:04.853Z,77.43
2018-09-03T22:15:33.929Z,77.94
2018-09-03T22:18:03.265Z,78.12
2018-09-03T22:20:32.269Z,78.17
2018-09-03T22:23:01.270Z,78.65
2018-09-03T22:25:30.315Z,78.55
2018-09-03T22:27:59.406Z,79.00
2018-09-03T22:30:28.530Z,79.28
2018-09-03T22:32:57.522Z,78.89
2018-09-03T22:35:26.567Z,78.93
2018-09-03T22:37:55.605Z,78.97
2018-09-03T22:40:24.757Z,79.21
2018-09-03T22:42:53.798Z,79.38
2018-09-03T22:45:22.797Z,79.31
2018-09-03T22:47:52.173Z,79.63
2018-09-03T22:50:21.184Z,80.43
2018-09-03T22:52:50.207Z,80.20
2018-09-03T22:55:19.207Z,80.43
2018-09-03T22:57:48.210Z,80.67
2018-09-03T23:00:17.200Z,80.70
2018-09-03T23:02:46.943Z,80.94
2018-09-03T23:05:15.940Z,80.83
2018-09-03T23:07:45.241Z,81.04
2018-09-03T23:10:14.233Z,81.19
2018-09-03T23:12:43.266Z,81.63
2018-09-03T23:15:12.321Z,81.61
2018-09-03T23:17:41.329Z,81.82
2018-09-03T23:20:10.401Z,82.14
2018-09-03T23:22:39.406Z,82.13
2018-09-03T23:25:08.795Z,82.60
2018-09-03T23:27:37.781Z,82.47
2018-09-03T23:30:06.778Z,82.33
2018-09-03T23:32:35.809Z,82.45
2018-09-03T23:35:04.914Z,83.65
2018-09-03T23:37:33.921Z,83.55
2018-09-03T23:40:03.129Z,83.83
2018-09-03T23:42:32.122Z,83.42
2018-09-03T23:45:01.131Z,83.81
2018-09-03T23:47:30.149Z,83.96
2018-09-03T23:49:59.157Z,83.82
2018-09-03T23:52:28.147Z,84.00
2018-09-03T23:54:57.267Z,83.94
2018-09-03T23:57:26.254Z,84.08
2018-09-03T23:59:55.240Z,83.96
